Coronel Moldes, Argentina
Current Conditions -  °F | °C
As of 11:00 AM on Sunday 21 Dec 2014 (Local Time) from SAOC Reporting Station
Scattered Clouds Scattered Clouds  
Wind Chill: 61°   Ceiling: Unl
Heat Index: 61°   Visibility: 6mi
Dew Point: 32°   Wind: 12mph
Humidity: 34%   Direction: 200°SSW
Pressure: 29.94"   Gusts: NA
Location:  33.68°S, 64.57°W
Report Text: SAOC 211400Z 20010KT 9999 FEW025 SCT10016/00 Q1014
Loading
Personal Weather Stations






























Interactive Weather Map New forecast layout! Learn more

10-Day Weather Forecast

Advertisements
Track Severe Weather on mobile